createdAt,value
2016-05-31T00:00:10.437Z,999.82
2016-05-31T00:01:10.424Z,999.8
2016-05-31T00:02:10.411Z,999.8
2016-05-31T00:03:10.398Z,999.78
2016-05-31T00:04:10.385Z,999.82
2016-05-31T00:05:10.372Z,999.84
2016-05-31T00:06:10.360Z,999.82
2016-05-31T00:07:10.346Z,999.8
2016-05-31T00:08:10.333Z,999.84
2016-05-31T00:09:10.321Z,999.88
2016-05-31T00:10:10.308Z,999.91
2016-05-31T00:11:10.294Z,999.9
2016-05-31T00:12:10.282Z,999.92
2016-05-31T00:13:10.268Z,999.94
2016-05-31T00:14:10.256Z,999.94
2016-05-31T00:15:10.243Z,999.97
2016-05-31T00:16:10.230Z,999.97
2016-05-31T00:17:10.217Z,1000.01
2016-05-31T00:18:10.203Z,999.95
2016-05-31T00:19:10.191Z,999.95
2016-05-31T00:20:10.179Z,999.92
2016-05-31T00:21:10.165Z,999.96
2016-05-31T00:22:10.152Z,999.96
2016-05-31T00:23:10.139Z,999.97
2016-05-31T00:24:10.125Z,999.94
2016-05-31T00:25:10.114Z,999.96
2016-05-31T00:26:10.084Z,999.98
2016-05-31T00:27:10.087Z,999.96
2016-05-31T00:28:10.074Z,999.99
2016-05-31T00:29:10.062Z,999.95
2016-05-31T00:30:10.049Z,999.97
2016-05-31T00:31:10.036Z,999.95
2016-05-31T00:32:10.007Z,999.99
2016-05-31T00:33:10.010Z,999.95
2016-05-31T00:34:09.997Z,999.98
2016-05-31T00:35:09.984Z,999.97
2016-05-31T00:36:09.971Z,999.97
2016-05-31T00:37:09.958Z,999.93
2016-05-31T00:38:10.601Z,999.96
2016-05-31T00:39:09.933Z,999.96
2016-05-31T00:40:09.919Z,999.93
2016-05-31T00:41:09.906Z,999.97
2016-05-31T00:42:09.893Z,999.98
2016-05-31T00:43:09.880Z,1000.01
2016-05-31T00:44:09.868Z,999.97
2016-05-31T00:45:09.854Z,999.99
2016-05-31T00:46:09.842Z,999.97
2016-05-31T00:47:09.829Z,1000
2016-05-31T00:48:09.801Z,1000.01
2016-05-31T00:49:09.804Z,1000
2016-05-31T00:50:09.774Z,999.96
2016-05-31T00:51:09.776Z,999.99
2016-05-31T00:52:09.765Z,1000.01
2016-05-31T00:53:09.751Z,1000.04
2016-05-31T00:54:09.739Z,1000.03
2016-05-31T00:55:09.709Z,1000.05
2016-05-31T00:56:09.697Z,1000.07
2016-05-31T00:57:09.700Z,1000.09
2016-05-31T00:58:09.686Z,1000.13
2016-05-31T00:59:09.673Z,1000.06
2016-05-31T01:00:09.661Z,1000.09
2016-05-31T01:01:09.647Z,1000.04
2016-05-31T01:02:09.619Z,1000.06
2016-05-31T01:03:09.622Z,1000.04
2016-05-31T01:04:09.594Z,1000.05
2016-05-31T01:05:09.580Z,1000.06
2016-05-31T01:06:09.567Z,1000.05
2016-05-31T01:07:09.555Z,1000.1
2016-05-31T01:08:09.557Z,1000.11
2016-05-31T01:09:09.544Z,1000.15
2016-05-31T01:10:09.516Z,1000.17
2016-05-31T01:11:09.502Z,1000.16
2016-05-31T01:12:09.505Z,1000.2
2016-05-31T01:13:09.493Z,1000.18
2016-05-31T01:14:09.479Z,1000.19
2016-05-31T01:15:09.466Z,1000.15
2016-05-31T01:16:09.454Z,1000.19
2016-05-31T01:17:09.425Z,1000.17
2016-05-31T01:18:09.428Z,1000.18
2016-05-31T01:19:09.415Z,1000.21
2016-05-31T01:20:09.401Z,1000.2
2016-05-31T01:21:09.389Z,1000.22
2016-05-31T01:22:09.376Z,1000.22
2016-05-31T01:23:09.362Z,1000.24
2016-05-31T01:24:09.351Z,1000.25
2016-05-31T01:25:09.353Z,1000.22
2016-05-31T01:26:09.325Z,1000.22
2016-05-31T01:27:09.311Z,1000.25
2016-05-31T01:28:09.298Z,1000.24
2016-05-31T01:29:09.270Z,1000.26
2016-05-31T01:30:09.273Z,1000.24
2016-05-31T01:31:09.244Z,1000.27
2016-05-31T01:32:09.231Z,1000.26
2016-05-31T01:33:09.218Z,1000.28
2016-05-31T01:34:09.206Z,1000.33
2016-05-31T01:35:09.192Z,1000.27
2016-05-31T01:36:09.179Z,1000.31
2016-05-31T01:37:09.167Z,1000.31
2016-05-31T01:38:09.153Z,1000.35
2016-05-31T01:39:09.156Z,1000.31
2016-05-31T01:40:09.143Z,1000.37
2016-05-31T01:41:09.115Z,1000.35
2016-05-31T01:42:09.101Z,1000.37
2016-05-31T01:43:09.088Z,1000.4
2016-05-31T01:44:09.076Z,1000.4
2016-05-31T01:45:09.063Z,1000.41
2016-05-31T01:46:09.049Z,1000.39
2016-05-31T01:47:09.037Z,1000.41
2016-05-31T01:48:09.024Z,1000.36
2016-05-31T01:49:09.012Z,1000.4
2016-05-31T01:50:09.014Z,1000.45
2016-05-31T01:51:08.985Z,1000.4
2016-05-31T01:52:08.973Z,1000.42
2016-05-31T01:53:08.975Z,1000.37
2016-05-31T01:54:08.962Z,1000.38
2016-05-31T01:55:08.934Z,1000.46
2016-05-31T01:56:08.937Z,1000.4
2016-05-31T01:57:08.908Z,1000.41
2016-05-31T01:58:08.895Z,1000.42
2016-05-31T01:59:08.881Z,1000.4
2016-05-31T02:00:08.884Z,1000.4
2016-05-31T02:01:08.856Z,1000.45
2016-05-31T02:02:08.859Z,1000.42
2016-05-31T02:03:08.845Z,1000.44
2016-05-31T02:04:08.833Z,1000.42
2016-05-31T02:05:08.804Z,1000.4
2016-05-31T02:06:08.792Z,1000.43
2016-05-31T02:07:08.778Z,1000.36
2016-05-31T02:08:08.765Z,1000.36
2016-05-31T02:09:08.752Z,1000.43
2016-05-31T02:10:08.739Z,1000.41
2016-05-31T02:11:08.727Z,1000.43
2016-05-31T02:12:08.714Z,1000.41
2016-05-31T02:13:08.701Z,1000.43
2016-05-31T02:14:08.688Z,1000.48
2016-05-31T02:15:08.675Z,1000.46
2016-05-31T02:16:08.662Z,1000.45
2016-05-31T02:17:08.649Z,1000.48
2016-05-31T02:18:08.636Z,1000.5
2016-05-31T02:19:08.624Z,1000.48
2016-05-31T02:20:08.610Z,1000.45
2016-05-31T02:21:08.598Z,1000.51
2016-05-31T02:22:08.584Z,1000.49
2016-05-31T02:23:08.571Z,1000.49
2016-05-31T02:24:08.559Z,1000.5
2016-05-31T02:25:08.546Z,1000.52
2016-05-31T02:26:08.580Z,1000.51
2016-05-31T02:27:08.520Z,1000.46
2016-05-31T02:28:08.507Z,1000.45
2016-05-31T02:29:08.495Z,1000.46
2016-05-31T02:30:08.481Z,1000.45
2016-05-31T02:31:08.468Z,1000.48
2016-05-31T02:32:08.470Z,1000.45
2016-05-31T02:33:08.442Z,1000.5
2016-05-31T02:34:08.586Z,1000.46
2016-05-31T02:35:08.417Z,1000.47
2016-05-31T02:36:08.403Z,1000.47
2016-05-31T02:37:08.406Z,1000.56
2016-05-31T02:38:08.377Z,1000.53
2016-05-31T02:39:08.364Z,1000.5
2016-05-31T02:40:08.367Z,1000.57
2016-05-31T02:41:08.338Z,1000.55
2016-05-31T02:42:08.669Z,1000.58
2016-05-31T02:43:08.313Z,1000.6
2016-05-31T02:44:08.300Z,1000.66
2016-05-31T02:45:08.287Z,1000.68
2016-05-31T02:46:08.274Z,1000.62
2016-05-31T02:47:08.260Z,1000.62
2016-05-31T02:48:08.248Z,1000.63
2016-05-31T02:49:08.235Z,1000.62
2016-05-31T02:50:08.629Z,1000.63
2016-05-31T02:51:08.210Z,1000.62
2016-05-31T02:52:08.196Z,1000.65
2016-05-31T02:53:08.184Z,1000.69
2016-05-31T02:54:08.170Z,1000.72
2016-05-31T02:55:08.157Z,1000.72
2016-05-31T02:56:08.145Z,1000.72
2016-05-31T02:57:08.132Z,1000.76
2016-05-31T02:58:08.712Z,1000.78
2016-05-31T02:59:08.106Z,1000.8
2016-05-31T03:00:08.092Z,1000.84
2016-05-31T03:01:08.081Z,1000.82
2016-05-31T03:02:08.067Z,1000.89
2016-05-31T03:03:08.054Z,1000.87
2016-05-31T03:04:08.041Z,1000.9
2016-05-31T03:05:08.028Z,1000.84
2016-05-31T03:06:08.609Z,1000.88
2016-05-31T03:07:08.002Z,1000.93
2016-05-31T03:08:07.990Z,1000.95
2016-05-31T03:09:07.977Z,1000.92
2016-05-31T03:10:07.964Z,1000.98
2016-05-31T03:11:07.966Z,1000.98
2016-05-31T03:12:07.937Z,1001.01
2016-05-31T03:13:07.925Z,1000.99
2016-05-31T03:14:08.661Z,1001.01
2016-05-31T03:15:07.899Z,1001
2016-05-31T03:16:07.886Z,1001.01
2016-05-31T03:17:07.873Z,1001.04
2016-05-31T03:18:07.860Z,1001.1
2016-05-31T03:19:07.847Z,1001.09
2016-05-31T03:20:07.834Z,1001.1
2016-05-31T03:21:07.821Z,1001.09
2016-05-31T03:22:07.949Z,1001.11
2016-05-31T03:23:08.374Z,1001.11
2016-05-31T03:24:07.782Z,1001.11
2016-05-31T03:25:07.770Z,1001.2
2016-05-31T03:26:07.757Z,1001.17
2016-05-31T03:27:07.743Z,1001.12
2016-05-31T03:28:07.730Z,1001.21
2016-05-31T03:29:07.718Z,1001.22
2016-05-31T03:30:07.892Z,1001.25
2016-05-31T03:31:07.692Z,1001.23
2016-05-31T03:32:07.679Z,1001.26
2016-05-31T03:33:07.650Z,1001.23
2016-05-31T03:34:07.653Z,1001.24
2016-05-31T03:35:07.640Z,1001.31
2016-05-31T03:36:07.628Z,1001.31
2016-05-31T03:37:07.598Z,1001.33
2016-05-31T03:38:08.226Z,1001.31
2016-05-31T03:39:07.589Z,1001.3
2016-05-31T03:40:07.560Z,1001.29
2016-05-31T03:41:07.547Z,1001.35
2016-05-31T03:42:07.533Z,1001.37
2016-05-31T03:43:07.521Z,1001.31
2016-05-31T03:44:07.508Z,1001.37
2016-05-31T03:45:07.494Z,1001.39
2016-05-31T03:46:08.686Z,1001.42
2016-05-31T03:47:07.485Z,1001.39
2016-05-31T03:48:07.471Z,1001.36
2016-05-31T03:49:07.444Z,1001.35
2016-05-31T03:50:07.446Z,1001.28
2016-05-31T03:51:07.417Z,1001.3
2016-05-31T03:52:07.405Z,1001.3
2016-05-31T03:53:07.391Z,1001.28
2016-05-31T03:54:07.394Z,1001.24
2016-05-31T03:55:07.366Z,1001.24
2016-05-31T03:56:07.353Z,1001.25
2016-05-31T03:57:07.340Z,1001.25
2016-05-31T03:58:07.327Z,1001.38
2016-05-31T03:59:07.314Z,1001.27
2016-05-31T04:00:07.301Z,1001.32
2016-05-31T04:01:07.287Z,1001.28
2016-05-31T04:02:07.276Z,1001.3
2016-05-31T04:03:07.262Z,1001.26
2016-05-31T04:04:07.249Z,1001.28
2016-05-31T04:05:07.237Z,1001.31
2016-05-31T04:06:07.223Z,1001.34
2016-05-31T04:07:07.210Z,1001.37
2016-05-31T04:08:07.197Z,1001.39
2016-05-31T04:09:07.185Z,1001.48
2016-05-31T04:10:07.172Z,1001.39
2016-05-31T04:11:07.174Z,1001.45
2016-05-31T04:12:07.147Z,1001.41
2016-05-31T04:13:07.133Z,1001.43
2016-05-31T04:14:07.119Z,1001.41
2016-05-31T04:15:07.107Z,1001.45
2016-05-31T04:16:07.094Z,1001.41
2016-05-31T04:17:07.081Z,1001.41
2016-05-31T04:18:07.068Z,1001.42
2016-05-31T04:19:07.055Z,1001.48
2016-05-31T04:20:07.043Z,1001.48
2016-05-31T04:21:07.029Z,1001.47
2016-05-31T04:22:07.016Z,1001.48
2016-05-31T04:23:07.691Z,1001.51
2016-05-31T04:24:06.991Z,1001.55
2016-05-31T04:25:06.977Z,1001.53
2016-05-31T04:26:06.965Z,1001.52
2016-05-31T04:27:06.952Z,1001.54
2016-05-31T04:28:06.939Z,1001.51
2016-05-31T04:29:06.925Z,1001.56
2016-05-31T04:30:06.912Z,1001.55
2016-05-31T04:31:06.901Z,1001.57
2016-05-31T04:32:06.887Z,1001.62
2016-05-31T04:33:06.873Z,1001.56
2016-05-31T04:34:06.862Z,1001.7
2016-05-31T04:35:06.848Z,1001.72
2016-05-31T04:36:06.835Z,1001.68
2016-05-31T04:37:06.823Z,1001.71
2016-05-31T04:38:06.809Z,1001.75
2016-05-31T04:39:06.797Z,1001.71
2016-05-31T04:40:06.783Z,1001.75
2016-05-31T04:41:06.771Z,1001.8
2016-05-31T04:42:06.758Z,1001.81
2016-05-31T04:43:06.744Z,1001.77
2016-05-31T04:44:06.732Z,1001.81
2016-05-31T04:45:06.719Z,1001.76
2016-05-31T04:46:06.706Z,1001.74
2016-05-31T04:47:06.693Z,1001.8
2016-05-31T04:48:06.680Z,1001.79
2016-05-31T04:49:06.667Z,1001.76
2016-05-31T04:50:06.654Z,1001.85
2016-05-31T04:51:06.626Z,1001.84
2016-05-31T04:52:06.629Z,1001.91
2016-05-31T04:53:06.600Z,1001.91
2016-05-31T04:54:06.587Z,1001.94
2016-05-31T04:55:06.590Z,1001.9
2016-05-31T04:56:06.560Z,1001.89
2016-05-31T04:57:06.548Z,1001.91
2016-05-31T04:58:06.535Z,1001.88
2016-05-31T04:59:06.522Z,1001.89
2016-05-31T05:00:06.510Z,1001.9
2016-05-31T05:01:06.496Z,1001.94
2016-05-31T05:02:06.483Z,1001.93
2016-05-31T05:03:06.471Z,1001.94
2016-05-31T05:04:06.457Z,1001.96
2016-05-31T05:05:06.445Z,1001.95
2016-05-31T05:06:06.431Z,1001.94
2016-05-31T05:07:06.420Z,1001.95
2016-05-31T05:08:06.437Z,1002
2016-05-31T05:09:06.392Z,1002
2016-05-31T05:10:06.380Z,1002.02
2016-05-31T05:11:06.366Z,1002.06
2016-05-31T05:12:06.354Z,1002.03
2016-05-31T05:13:06.356Z,1002.02
2016-05-31T05:14:06.328Z,1002.05
2016-05-31T05:15:06.331Z,1002.03
2016-05-31T05:16:06.302Z,1002.05
2016-05-31T05:17:06.289Z,1002.06
2016-05-31T05:18:06.276Z,1002.1
2016-05-31T05:19:06.264Z,1002.12
2016-05-31T05:20:06.250Z,1002.14
2016-05-31T05:21:06.238Z,1002.13
2016-05-31T05:22:06.224Z,1002.17
2016-05-31T05:23:06.446Z,1002.2
2016-05-31T05:24:06.199Z,1002.19
2016-05-31T05:25:06.185Z,1002.22
2016-05-31T05:26:06.188Z,1002.25
2016-05-31T05:27:06.160Z,1002.23
2016-05-31T05:28:06.132Z,1002.26
2016-05-31T05:29:06.134Z,1002.27
2016-05-31T05:30:06.121Z,1002.28
2016-05-31T05:31:06.109Z,1002.27
2016-05-31T05:32:06.095Z,1002.29
2016-05-31T05:33:06.082Z,1002.27
2016-05-31T05:34:06.070Z,1002.3
2016-05-31T05:35:06.041Z,1002.31
2016-05-31T05:36:06.028Z,1002.33
2016-05-31T05:37:06.015Z,1002.3
2016-05-31T05:38:06.002Z,1002.33
2016-05-31T05:39:05.989Z,1002.32
2016-05-31T05:40:05.976Z,1002.31
2016-05-31T05:41:05.963Z,1002.3
2016-05-31T05:42:05.951Z,1002.32
2016-05-31T05:43:05.937Z,1002.33
2016-05-31T05:44:05.925Z,1002.27
2016-05-31T05:45:05.927Z,1002.31
2016-05-31T05:46:05.914Z,1002.33
2016-05-31T05:47:05.886Z,1002.28
2016-05-31T05:48:05.872Z,1002.3
2016-05-31T05:49:05.860Z,1002.32
2016-05-31T05:50:05.846Z,1002.28
2016-05-31T05:51:05.834Z,1002.29
2016-05-31T05:52:05.821Z,1002.26
2016-05-31T05:53:05.807Z,1002.3
2016-05-31T05:54:05.796Z,1002.27
2016-05-31T05:55:05.782Z,1002.29
2016-05-31T05:56:05.769Z,1002.28
2016-05-31T05:57:05.765Z,1002.24
2016-05-31T05:58:05.779Z,1002.3
2016-05-31T05:59:05.777Z,1002.23
2016-05-31T06:00:05.790Z,1002.22
2016-05-31T06:01:05.804Z,1002.27
2016-05-31T06:02:05.828Z,1002.2
2016-05-31T06:03:05.808Z,1002.24
2016-05-31T06:04:05.805Z,1002.24
2016-05-31T06:05:05.802Z,1002.24
2016-05-31T06:06:05.798Z,1002.25
2016-05-31T06:07:05.793Z,1002.24
2016-05-31T06:08:05.799Z,1002.26
2016-05-31T06:09:05.775Z,1002.22
2016-05-31T06:10:05.765Z,1002.26
2016-05-31T06:11:05.755Z,1002.27
2016-05-31T06:12:05.745Z,1002.27
2016-05-31T06:13:05.732Z,1002.27
2016-05-31T06:14:05.721Z,1002.29
2016-05-31T06:15:05.694Z,1002.33
2016-05-31T06:16:05.697Z,1002.38
2016-05-31T06:17:05.686Z,1002.38
2016-05-31T06:18:05.657Z,1002.42
2016-05-31T06:19:05.645Z,1002.46
2016-05-31T06:20:05.632Z,1002.43
2016-05-31T06:21:05.619Z,1002.5
2016-05-31T06:22:05.608Z,1002.46
2016-05-31T06:23:05.594Z,1002.48
2016-05-31T06:24:05.581Z,1002.49
2016-05-31T06:25:05.569Z,1002.54
2016-05-31T06:26:05.555Z,1002.48
2016-05-31T06:27:05.543Z,1002.51
2016-05-31T06:28:05.529Z,1002.52
2016-05-31T06:29:05.516Z,1002.5
2016-05-31T06:30:05.504Z,1002.54
2016-05-31T06:31:05.490Z,1002.55
2016-05-31T06:32:05.478Z,1002.57
2016-05-31T06:33:05.448Z,1002.53
2016-05-31T06:34:05.437Z,1002.51
2016-05-31T06:35:05.423Z,1002.49
2016-05-31T06:36:05.410Z,1002.56
2016-05-31T06:37:05.397Z,1002.5
2016-05-31T06:38:05.385Z,1002.51
2016-05-31T06:39:05.372Z,1002.49
2016-05-31T06:40:05.358Z,1002.54
2016-05-31T06:41:05.345Z,1002.52
2016-05-31T06:42:05.348Z,1002.54
2016-05-31T06:43:05.320Z,1002.55
2016-05-31T06:44:05.306Z,1002.53
2016-05-31T06:45:05.294Z,1002.6
2016-05-31T06:46:05.280Z,1002.57
2016-05-31T06:47:05.269Z,1002.64
2016-05-31T06:48:05.255Z,1002.63
2016-05-31T06:49:05.242Z,1002.62
2016-05-31T06:50:05.230Z,1002.6
2016-05-31T06:51:05.216Z,1002.67
2016-05-31T06:52:05.203Z,1002.64
2016-05-31T06:53:05.455Z,1002.7
2016-05-31T06:54:05.177Z,1002.69
2016-05-31T06:55:05.165Z,1002.71
2016-05-31T06:56:05.152Z,1002.69
2016-05-31T06:57:05.232Z,1002.76
2016-05-31T06:58:05.110Z,1002.74
2016-05-31T06:59:05.097Z,1002.77
2016-05-31T07:00:05.100Z,1002.82
2016-05-31T07:01:05.087Z,1002.76
2016-05-31T07:02:05.059Z,1002.75
2016-05-31T07:03:05.061Z,1002.71
2016-05-31T07:04:05.032Z,1002.73
2016-05-31T07:05:05.082Z,1002.77
2016-05-31T07:06:05.006Z,1002.78
2016-05-31T07:07:04.993Z,1002.76
2016-05-31T07:08:04.981Z,1002.74
2016-05-31T07:09:04.968Z,1002.73
2016-05-31T07:10:04.955Z,1002.71
2016-05-31T07:11:04.942Z,1002.75
2016-05-31T07:12:04.928Z,1002.71
2016-05-31T07:13:05.120Z,1002.73
2016-05-31T07:14:04.903Z,1002.74
2016-05-31T07:15:04.890Z,1002.76
2016-05-31T07:16:04.877Z,1002.75
2016-05-31T07:17:04.864Z,1002.75
2016-05-31T07:18:04.851Z,1002.77
2016-05-31T07:19:04.823Z,1002.8
2016-05-31T07:20:04.825Z,1002.77
2016-05-31T07:21:05.110Z,1002.78
2016-05-31T07:22:04.783Z,1002.77
2016-05-31T07:23:04.772Z,1002.86
2016-05-31T07:24:04.758Z,1002.89
2016-05-31T07:25:04.745Z,1002.89
2016-05-31T07:26:04.732Z,1002.87
2016-05-31T07:27:04.719Z,1002.89
2016-05-31T07:28:04.707Z,1002.89
2016-05-31T07:29:05.193Z,1002.89
2016-05-31T07:30:04.680Z,1002.9
2016-05-31T07:31:04.668Z,1002.95
2016-05-31T07:32:04.655Z,1002.96
2016-05-31T07:33:04.642Z,1002.94
2016-05-31T07:34:04.629Z,1002.97
2016-05-31T07:35:04.615Z,1003.03
2016-05-31T07:36:04.603Z,1003.05
2016-05-31T07:37:05.137Z,1003.07
2016-05-31T07:38:04.577Z,1003.1
2016-05-31T07:39:04.564Z,1003.05
2016-05-31T07:40:04.536Z,1003.05
2016-05-31T07:41:04.539Z,1003.07
2016-05-31T07:42:04.525Z,1003.07
2016-05-31T07:43:04.497Z,1003.11
2016-05-31T07:44:04.499Z,1003.11
2016-05-31T07:45:05.128Z,1003.12
2016-05-31T07:46:04.459Z,1003.14
2016-05-31T07:47:04.445Z,1003.19
2016-05-31T07:48:04.432Z,1003.18
2016-05-31T07:49:04.419Z,1003.16
2016-05-31T07:50:04.406Z,1003.19
2016-05-31T07:51:04.394Z,1003.16
2016-05-31T07:52:04.396Z,1003.15
2016-05-31T07:53:04.508Z,1003.16
2016-05-31T07:54:04.354Z,1003.16
2016-05-31T07:55:04.342Z,1003.14
2016-05-31T07:56:04.329Z,1003.16
2016-05-31T07:57:04.316Z,1003.21
2016-05-31T07:58:04.302Z,1003.21
2016-05-31T07:59:04.290Z,1003.23
2016-05-31T08:00:04.277Z,1003.27
2016-05-31T08:01:04.421Z,1003.27
2016-05-31T08:02:04.251Z,1003.27
2016-05-31T08:03:04.237Z,1003.29
2016-05-31T08:04:04.226Z,1003.28
2016-05-31T08:05:04.213Z,1003.3
2016-05-31T08:06:04.199Z,1003.31
2016-05-31T08:07:04.186Z,1003.33
2016-05-31T08:08:04.189Z,1003.27
2016-05-31T08:09:04.409Z,1003.27
2016-05-31T08:10:04.148Z,1003.29
2016-05-31T08:11:04.151Z,1003.29
2016-05-31T08:12:04.122Z,1003.25
2016-05-31T08:13:04.108Z,1003.26
2016-05-31T08:14:04.096Z,1003.34
2016-05-31T08:15:04.083Z,1003.3
2016-05-31T08:16:04.070Z,1003.35
2016-05-31T08:17:04.447Z,1003.3
2016-05-31T08:18:04.044Z,1003.33
2016-05-31T08:19:04.030Z,1003.33
2016-05-31T08:20:04.018Z,1003.38
2016-05-31T08:21:04.005Z,1003.39
2016-05-31T08:22:03.992Z,1003.39
2016-05-31T08:23:03.979Z,1003.39
2016-05-31T08:24:04.216Z,1003.4
2016-05-31T08:25:04.438Z,1003.39
2016-05-31T08:26:03.925Z,1003.39
2016-05-31T08:27:03.927Z,1003.36
2016-05-31T08:28:03.915Z,1003.39
2016-05-31T08:29:03.885Z,1003.39
2016-05-31T08:30:03.889Z,1003.39
2016-05-31T08:31:03.876Z,1003.38
2016-05-31T08:32:03.847Z,1003.41
2016-05-31T08:33:03.849Z,1003.44
2016-05-31T08:34:03.837Z,1003.4
2016-05-31T08:35:03.824Z,1003.37
2016-05-31T08:36:03.811Z,1003.4
2016-05-31T08:37:03.783Z,1003.39
2016-05-31T08:38:04.488Z,1003.37
2016-05-31T08:39:04.335Z,1003.37
2016-05-31T08:40:03.759Z,1003.35
2016-05-31T08:41:03.762Z,1003.41
2016-05-31T08:42:03.734Z,1003.42
2016-05-31T08:43:03.720Z,1003.37
2016-05-31T08:44:03.692Z,1003.45
2016-05-31T08:45:03.679Z,1003.43
2016-05-31T08:46:03.681Z,1003.45
2016-05-31T08:47:03.653Z,1003.44
2016-05-31T08:48:03.640Z,1003.46
2016-05-31T08:49:03.643Z,1003.48
2016-05-31T08:50:03.614Z,1003.42
2016-05-31T08:51:03.602Z,1003.42
2016-05-31T08:52:03.588Z,1003.43
2016-05-31T08:53:03.591Z,1003.44
2016-05-31T08:54:03.563Z,1003.46
2016-05-31T08:55:03.550Z,1003.42
2016-05-31T08:56:03.536Z,1003.48
2016-05-31T08:57:03.524Z,1003.5
2016-05-31T08:58:03.511Z,1003.51
2016-05-31T08:59:03.498Z,1003.5
2016-05-31T09:00:03.485Z,1003.52
2016-05-31T09:01:03.472Z,1003.52
2016-05-31T09:02:03.459Z,1003.53
2016-05-31T09:03:03.462Z,1003.6
2016-05-31T09:04:03.433Z,1003.59
2016-05-31T09:05:03.420Z,1003.54
2016-05-31T09:06:03.407Z,1003.6
2016-05-31T09:07:03.395Z,1003.59
2016-05-31T09:08:03.382Z,1003.58
2016-05-31T09:09:03.368Z,1003.57
2016-05-31T09:10:03.356Z,1003.58
2016-05-31T09:11:03.358Z,1003.64
2016-05-31T09:12:03.329Z,1003.64
2016-05-31T09:13:03.317Z,1003.65
2016-05-31T09:14:03.304Z,1003.63
2016-05-31T09:15:03.291Z,1003.66
2016-05-31T09:16:03.278Z,1003.68
2016-05-31T09:17:03.264Z,1003.7
2016-05-31T09:18:03.268Z,1003.71
2016-05-31T09:19:03.239Z,1003.71
2016-05-31T09:20:03.226Z,1003.7
2016-05-31T09:21:03.213Z,1003.78
2016-05-31T09:22:03.201Z,1003.75
2016-05-31T09:23:03.187Z,1003.75
2016-05-31T09:24:03.175Z,1003.77
2016-05-31T09:25:03.161Z,1003.73
2016-05-31T09:26:03.149Z,1003.75
2016-05-31T09:27:03.135Z,1003.76
2016-05-31T09:28:03.280Z,1003.78
2016-05-31T09:29:03.110Z,1003.78
2016-05-31T09:30:03.097Z,1003.8
2016-05-31T09:31:03.084Z,1003.8
2016-05-31T09:32:03.072Z,1003.77
2016-05-31T09:33:03.057Z,1003.78
2016-05-31T09:34:03.042Z,1003.81
2016-05-31T09:35:03.030Z,1003.81
2016-05-31T09:36:03.268Z,1003.85
2016-05-31T09:37:03.018Z,1003.85
2016-05-31T09:38:02.991Z,1003.85
2016-05-31T09:39:02.979Z,1003.91
2016-05-31T09:40:02.965Z,1003.9
2016-05-31T09:41:02.952Z,1003.92
2016-05-31T09:42:02.939Z,1003.91
2016-05-31T09:43:02.942Z,1003.96
2016-05-31T09:44:03.369Z,1004.02
2016-05-31T09:45:02.900Z,1004.02
2016-05-31T09:46:02.887Z,1003.98
2016-05-31T09:47:02.875Z,1003.94
2016-05-31T09:48:02.877Z,1003.96
2016-05-31T09:49:02.848Z,1003.99
2016-05-31T09:50:02.836Z,1003.98
2016-05-31T09:51:02.823Z,1003.99
2016-05-31T09:52:03.263Z,1003.97
2016-05-31T09:53:02.797Z,1004.01
2016-05-31T09:54:02.783Z,1004.05
2016-05-31T09:55:02.786Z,1004.03
2016-05-31T09:56:02.758Z,1004.01
2016-05-31T09:57:02.745Z,1004.02
2016-05-31T09:58:02.732Z,1004.06
2016-05-31T09:59:02.719Z,1004.07
2016-05-31T10:00:03.315Z,1004.13
2016-05-31T10:01:02.694Z,1004.12
2016-05-31T10:02:02.680Z,1004.17
2016-05-31T10:03:02.668Z,1004.16
2016-05-31T10:04:02.654Z,1004.14
2016-05-31T10:05:02.688Z,1004.19
2016-05-31T10:06:02.628Z,1004.24
2016-05-31T10:07:02.632Z,1004.18
2016-05-31T10:08:03.321Z,1004.21
2016-05-31T10:09:02.605Z,1004.19
2016-05-31T10:10:02.576Z,1004.25
2016-05-31T10:11:02.565Z,1004.3
2016-05-31T10:12:02.551Z,1004.35
2016-05-31T10:13:02.538Z,1004.31
2016-05-31T10:14:02.525Z,1004.33
2016-05-31T10:15:02.512Z,1004.33
2016-05-31T10:16:03.295Z,1004.36
2016-05-31T10:17:02.487Z,1004.39
2016-05-31T10:18:02.473Z,1004.4
2016-05-31T10:19:02.461Z,1004.41
2016-05-31T10:20:02.447Z,1004.41
2016-05-31T10:21:02.435Z,1004.41
2016-05-31T10:22:02.422Z,1004.45
2016-05-31T10:23:02.408Z,1004.42
2016-05-31T10:24:03.303Z,1004.47
2016-05-31T10:25:02.398Z,1004.53
2016-05-31T10:26:02.400Z,1004.47
2016-05-31T10:27:02.357Z,1004.51
2016-05-31T10:28:02.344Z,1004.53
2016-05-31T10:29:02.331Z,1004.52
2016-05-31T10:30:02.333Z,1004.54
2016-05-31T10:31:02.321Z,1004.53
2016-05-31T10:32:03.449Z,1004.53
2016-05-31T10:33:02.279Z,1004.53
2016-05-31T10:34:02.266Z,1004.56
2016-05-31T10:35:02.254Z,1004.51
2016-05-31T10:36:02.240Z,1004.59
2016-05-31T10:37:02.227Z,1004.56
2016-05-31T10:38:02.215Z,1004.57
2016-05-31T10:39:02.202Z,1004.57
2016-05-31T10:40:02.595Z,1004.6
2016-05-31T10:41:02.176Z,1004.6
2016-05-31T10:42:02.179Z,1004.59
2016-05-31T10:43:02.165Z,1004.62
2016-05-31T10:44:02.137Z,1004.61
2016-05-31T10:45:02.140Z,1004.66
2016-05-31T10:46:02.126Z,1004.64
2016-05-31T10:47:02.114Z,1004.7
2016-05-31T10:48:02.648Z,1004.69
2016-05-31T10:49:02.072Z,1004.7
2016-05-31T10:50:02.060Z,1004.68
2016-05-31T10:51:02.047Z,1004.72
2016-05-31T10:52:02.034Z,1004.65
2016-05-31T10:53:02.020Z,1004.72
2016-05-31T10:54:02.007Z,1004.77
2016-05-31T10:55:01.995Z,1004.78
2016-05-31T10:56:01.981Z,1004.74
2016-05-31T10:57:01.969Z,1004.76
2016-05-31T10:58:01.956Z,1004.7
2016-05-31T10:59:01.943Z,1004.74
2016-05-31T11:00:01.946Z,1004.71
2016-05-31T11:01:01.917Z,1004.75
2016-05-31T11:02:01.904Z,1004.72
2016-05-31T11:03:01.891Z,1004.69
2016-05-31T11:04:01.878Z,1004.72
2016-05-31T11:05:01.865Z,1004.71
2016-05-31T11:06:01.852Z,1004.77
2016-05-31T11:07:01.840Z,1004.74
2016-05-31T11:08:02.138Z,1004.78
2016-05-31T11:09:01.814Z,1004.78
2016-05-31T11:10:01.801Z,1004.79
2016-05-31T11:11:01.787Z,1004.79
2016-05-31T11:12:01.774Z,1004.79
2016-05-31T11:13:01.762Z,1004.78
2016-05-31T11:14:01.748Z,1004.78
2016-05-31T11:15:01.752Z,1004.82
2016-05-31T11:16:01.723Z,1004.83
2016-05-31T11:17:01.710Z,1004.83
2016-05-31T11:18:01.698Z,1004.89
2016-05-31T11:19:01.684Z,1004.87
2016-05-31T11:20:01.671Z,1004.89
2016-05-31T11:21:01.658Z,1004.88
2016-05-31T11:22:01.645Z,1004.92
2016-05-31T11:23:01.633Z,1004.92
2016-05-31T11:24:01.636Z,1004.95
2016-05-31T11:25:01.606Z,1004.92
2016-05-31T11:26:01.594Z,1004.9
2016-05-31T11:27:01.581Z,1004.94
2016-05-31T11:28:01.567Z,1004.96
2016-05-31T11:29:01.555Z,1004.97
2016-05-31T11:30:01.558Z,1004.98
2016-05-31T11:31:01.529Z,1004.97
2016-05-31T11:32:01.516Z,1005.02
2016-05-31T11:33:01.502Z,1005.01
2016-05-31T11:34:01.491Z,1005.04
2016-05-31T11:35:01.477Z,1005.06
2016-05-31T11:36:01.464Z,1005.06
2016-05-31T11:37:01.451Z,1005
2016-05-31T11:38:01.438Z,1005.01
2016-05-31T11:39:01.440Z,1005.02
2016-05-31T11:40:01.412Z,1005.06
2016-05-31T11:41:01.400Z,1004.96
2016-05-31T11:42:01.387Z,1004.97
2016-05-31T11:43:01.389Z,1004.98
2016-05-31T11:44:01.377Z,1004.97
2016-05-31T11:45:01.348Z,1005.01
2016-05-31T11:46:01.335Z,1005.07
2016-05-31T11:47:01.323Z,1005.05
2016-05-31T11:48:01.325Z,1005.06
2016-05-31T11:49:01.311Z,1005.01
2016-05-31T11:50:01.283Z,1004.97
2016-05-31T11:51:01.270Z,1005.02
2016-05-31T11:52:01.273Z,1005.01
2016-05-31T11:53:01.245Z,1005
2016-05-31T11:54:01.247Z,1005.02
2016-05-31T11:55:01.234Z,1005.05
2016-05-31T11:56:01.221Z,1005.07
2016-05-31T11:57:01.208Z,1005.08
2016-05-31T11:58:01.180Z,1005.03
2016-05-31T11:59:01.167Z,1005.05
2016-05-31T12:00:01.169Z,1005.04
2016-05-31T12:01:01.156Z,1005.01
2016-05-31T12:02:01.143Z,1005
2016-05-31T12:03:01.130Z,1005.03
2016-05-31T12:04:01.119Z,1005.04
2016-05-31T12:05:01.105Z,1005.03
2016-05-31T12:06:01.092Z,1004.99
2016-05-31T12:07:01.094Z,1005.07
2016-05-31T12:08:01.065Z,1005.05
2016-05-31T12:09:01.053Z,1005.03
2016-05-31T12:10:01.041Z,1005.08